sensor_id;sensor_type;location;lat;lon;timestamp;P1;durP1;ratioP1;P2;durP2;ratioP2
46491;SDS011;32206;51.446;6.792;2023-06-14T00:01:32;3.42;;;3.13;;
46491;SDS011;32206;51.446;6.792;2023-06-14T00:03:59;6.82;;;3.60;;
46491;SDS011;32206;51.446;6.792;2023-06-14T00:06:26;4.57;;;3.40;;
46491;SDS011;32206;51.446;6.792;2023-06-14T00:12:16;4.25;;;3.55;;
46491;SDS011;32206;51.446;6.792;2023-06-14T00:14:41;6.85;;;3.47;;
46491;SDS011;32206;51.446;6.792;2023-06-14T00:17:07;4.30;;;2.90;;
46491;SDS011;32206;51.446;6.792;2023-06-14T00:19:33;8.43;;;3.55;;
46491;SDS011;32206;51.446;6.792;2023-06-14T00:22:01;5.88;;;3.40;;
46491;SDS011;32206;51.446;6.792;2023-06-14T00:24:28;10.75;;;3.78;;
46491;SDS011;32206;51.446;6.792;2023-06-14T00:26:53;5.03;;;3.53;;
46491;SDS011;32206;51.446;6.792;2023-06-14T00:29:20;6.35;;;4.05;;
46491;SDS011;32206;51.446;6.792;2023-06-14T00:31:45;7.03;;;3.47;;
46491;SDS011;32206;51.446;6.792;2023-06-14T00:34:17;4.47;;;4.05;;
46491;SDS011;32206;51.446;6.792;2023-06-14T00:36:43;4.68;;;3.88;;
46491;SDS011;32206;51.446;6.792;2023-06-14T00:39:09;3.88;;;3.53;;
46491;SDS011;32206;51.446;6.792;2023-06-14T00:41:34;4.25;;;3.67;;
46491;SDS011;32206;51.446;6.792;2023-06-14T00:44:00;6.53;;;4.45;;
46491;SDS011;32206;51.446;6.792;2023-06-14T00:46:26;7.63;;;3.60;;
46491;SDS011;32206;51.446;6.792;2023-06-14T00:48:51;6.65;;;4.40;;
46491;SDS011;32206;51.446;6.792;2023-06-14T00:51:17;7.03;;;3.85;;
46491;SDS011;32206;51.446;6.792;2023-06-14T00:53:44;7.18;;;4.22;;
46491;SDS011;32206;51.446;6.792;2023-06-14T00:56:12;6.22;;;3.72;;
46491;SDS011;32206;51.446;6.792;2023-06-14T00:58:39;5.45;;;3.63;;
46491;SDS011;32206;51.446;6.792;2023-06-14T01:01:06;9.60;;;4.03;;
46491;SDS011;32206;51.446;6.792;2023-06-14T01:03:32;5.80;;;3.50;;
46491;SDS011;32206;51.446;6.792;2023-06-14T01:06:35;3.58;;;3.20;;
46491;SDS011;32206;51.446;6.792;2023-06-14T01:09:09;4.85;;;3.20;;
46491;SDS011;32206;51.446;6.792;2023-06-14T01:14:26;5.55;;;3.30;;
46491;SDS011;32206;51.446;6.792;2023-06-14T01:16:53;4.82;;;3.08;;
46491;SDS011;32206;51.446;6.792;2023-06-14T01:22:52;3.58;;;3.10;;
46491;SDS011;32206;51.446;6.792;2023-06-14T01:25:19;8.02;;;3.20;;
46491;SDS011;32206;51.446;6.792;2023-06-14T01:27:47;3.50;;;2.78;;
46491;SDS011;32206;51.446;6.792;2023-06-14T01:30:27;9.20;;;2.92;;
46491;SDS011;32206;51.446;6.792;2023-06-14T01:32:55;6.93;;;3.33;;
46491;SDS011;32206;51.446;6.792;2023-06-14T01:35:22;4.18;;;2.85;;
46491;SDS011;32206;51.446;6.792;2023-06-14T01:37:48;5.32;;;3.38;;
46491;SDS011;32206;51.446;6.792;2023-06-14T01:40:15;6.78;;;3.15;;
46491;SDS011;32206;51.446;6.792;2023-06-14T01:42:46;4.53;;;3.00;;
46491;SDS011;32206;51.446;6.792;2023-06-14T01:45:13;6.18;;;3.50;;
46491;SDS011;32206;51.446;6.792;2023-06-14T01:47:39;2.70;;;2.50;;
46491;SDS011;32206;51.446;6.792;2023-06-14T01:50:05;6.80;;;3.03;;
46491;SDS011;32206;51.446;6.792;2023-06-14T01:52:31;4.18;;;2.90;;
46491;SDS011;32206;51.446;6.792;2023-06-14T01:54:57;3.78;;;3.40;;
46491;SDS011;32206;51.446;6.792;2023-06-14T01:57:23;3.70;;;2.97;;
46491;SDS011;32206;51.446;6.792;2023-06-14T01:59:51;5.82;;;3.38;;
46491;SDS011;32206;51.446;6.792;2023-06-14T02:02:17;6.28;;;3.22;;
46491;SDS011;32206;51.446;6.792;2023-06-14T02:04:43;5.28;;;3.22;;
46491;SDS011;32206;51.446;6.792;2023-06-14T02:07:12;5.75;;;3.35;;
46491;SDS011;32206;51.446;6.792;2023-06-14T02:09:39;5.78;;;3.30;;
46491;SDS011;32206;51.446;6.792;2023-06-14T02:12:05;11.30;;;3.50;;
46491;SDS011;32206;51.446;6.792;2023-06-14T02:14:31;4.80;;;2.92;;
46491;SDS011;32206;51.446;6.792;2023-06-14T02:16:57;3.80;;;3.20;;
46491;SDS011;32206;51.446;6.792;2023-06-14T02:19:23;11.48;;;8.75;;
46491;SDS011;32206;51.446;6.792;2023-06-14T02:21:49;5.30;;;3.00;;
46491;SDS011;32206;51.446;6.792;2023-06-14T02:24:15;5.07;;;3.08;;
46491;SDS011;32206;51.446;6.792;2023-06-14T02:26:41;5.93;;;2.95;;
46491;SDS011;32206;51.446;6.792;2023-06-14T02:29:07;8.32;;;2.63;;
46491;SDS011;32206;51.446;6.792;2023-06-14T02:34:59;3.50;;;2.95;;
46491;SDS011;32206;51.446;6.792;2023-06-14T02:37:25;4.82;;;3.13;;
46491;SDS011;32206;51.446;6.792;2023-06-14T02:39:51;5.28;;;2.70;;
46491;SDS011;32206;51.446;6.792;2023-06-14T02:42:16;3.90;;;2.83;;
46491;SDS011;32206;51.446;6.792;2023-06-14T02:44:42;4.88;;;2.65;;
46491;SDS011;32206;51.446;6.792;2023-06-14T02:47:09;2.72;;;2.53;;
46491;SDS011;32206;51.446;6.792;2023-06-14T02:49:34;4.30;;;2.95;;
46491;SDS011;32206;51.446;6.792;2023-06-14T02:52:00;4.32;;;2.88;;
46491;SDS011;32206;51.446;6.792;2023-06-14T02:54:25;3.80;;;2.83;;
46491;SDS011;32206;51.446;6.792;2023-06-14T02:56:51;5.25;;;2.90;;
46491;SDS011;32206;51.446;6.792;2023-06-14T02:59:17;9.07;;;3.08;;
46491;SDS011;32206;51.446;6.792;2023-06-14T03:01:44;5.32;;;2.83;;
46491;SDS011;32206;51.446;6.792;2023-06-14T03:04:10;7.85;;;3.00;;
46491;SDS011;32206;51.446;6.792;2023-06-14T03:06:35;4.38;;;2.67;;
46491;SDS011;32206;51.446;6.792;2023-06-14T03:09:02;8.20;;;3.10;;
46491;SDS011;32206;51.446;6.792;2023-06-14T03:11:31;6.10;;;2.72;;
46491;SDS011;32206;51.446;6.792;2023-06-14T03:17:19;3.22;;;2.70;;
46491;SDS011;32206;51.446;6.792;2023-06-14T03:19:44;6.25;;;3.08;;
46491;SDS011;32206;51.446;6.792;2023-06-14T03:22:10;6.47;;;2.50;;
46491;SDS011;32206;51.446;6.792;2023-06-14T03:31:20;4.03;;;2.65;;
46491;SDS011;32206;51.446;6.792;2023-06-14T03:33:46;4.90;;;2.45;;
46491;SDS011;32206;51.446;6.792;2023-06-14T03:36:11;4.50;;;2.53;;
46491;SDS011;32206;51.446;6.792;2023-06-14T03:38:37;3.78;;;2.90;;
46491;SDS011;32206;51.446;6.792;2023-06-14T03:41:03;4.75;;;2.70;;
46491;SDS011;32206;51.446;6.792;2023-06-14T03:43:28;7.05;;;2.80;;
46491;SDS011;32206;51.446;6.792;2023-06-14T03:45:55;20.00;;;14.25;;
46491;SDS011;32206;51.446;6.792;2023-06-14T03:48:20;18.48;;;11.05;;
46491;SDS011;32206;51.446;6.792;2023-06-14T03:50:46;6.10;;;3.88;;
46491;SDS011;32206;51.446;6.792;2023-06-14T03:53:12;8.30;;;2.67;;
46491;SDS011;32206;51.446;6.792;2023-06-14T03:55:38;3.55;;;2.65;;
46491;SDS011;32206;51.446;6.792;2023-06-14T03:58:04;9.15;;;2.80;;
46491;SDS011;32206;51.446;6.792;2023-06-14T04:00:30;4.70;;;2.88;;
46491;SDS011;32206;51.446;6.792;2023-06-14T04:02:57;7.47;;;3.10;;
46491;SDS011;32206;51.446;6.792;2023-06-14T04:05:22;4.85;;;2.60;;
46491;SDS011;32206;51.446;6.792;2023-06-14T04:07:51;3.83;;;2.50;;
46491;SDS011;32206;51.446;6.792;2023-06-14T04:17:01;3.53;;;2.22;;
46491;SDS011;32206;51.446;6.792;2023-06-14T04:19:27;6.32;;;2.25;;
46491;SDS011;32206;51.446;6.792;2023-06-14T04:21:53;4.28;;;2.78;;
46491;SDS011;32206;51.446;6.792;2023-06-14T04:24:18;8.18;;;2.72;;
46491;SDS011;32206;51.446;6.792;2023-06-14T04:30:06;5.80;;;2.58;;
46491;SDS011;32206;51.446;6.792;2023-06-14T04:32:32;2.30;;;2.00;;
46491;SDS011;32206;51.446;6.792;2023-06-14T04:37:49;7.35;;;2.10;;
46491;SDS011;32206;51.446;6.792;2023-06-14T04:40:14;15.07;;;2.15;;
46491;SDS011;32206;51.446;6.792;2023-06-14T04:42:40;10.18;;;2.42;;
46491;SDS011;32206;51.446;6.792;2023-06-14T04:45:09;3.05;;;1.83;;
46491;SDS011;32206;51.446;6.792;2023-06-14T04:54:19;2.72;;;2.10;;
46491;SDS011;32206;51.446;6.792;2023-06-14T04:56:45;7.68;;;2.17;;
46491;SDS011;32206;51.446;6.792;2023-06-14T04:59:11;3.75;;;2.45;;
46491;SDS011;32206;51.446;6.792;2023-06-14T05:01:37;6.45;;;1.95;;
46491;SDS011;32206;51.446;6.792;2023-06-14T05:04:03;8.55;;;2.92;;
46491;SDS011;32206;51.446;6.792;2023-06-14T05:13:13;9.13;;;2.50;;
46491;SDS011;32206;51.446;6.792;2023-06-14T05:15:39;8.10;;;2.72;;
46491;SDS011;32206;51.446;6.792;2023-06-14T05:18:04;4.45;;;2.30;;
46491;SDS011;32206;51.446;6.792;2023-06-14T05:20:30;13.68;;;2.50;;
46491;SDS011;32206;51.446;6.792;2023-06-14T05:22:56;8.65;;;2.67;;
46491;SDS011;32206;51.446;6.792;2023-06-14T05:25:22;4.82;;;2.20;;
46491;SDS011;32206;51.446;6.792;2023-06-14T05:27:48;5.47;;;2.25;;
46491;SDS011;32206;51.446;6.792;2023-06-14T05:30:14;7.28;;;2.63;;
46491;SDS011;32206;51.446;6.792;2023-06-14T05:32:40;8.63;;;2.90;;
46491;SDS011;32206;51.446;6.792;2023-06-14T05:35:06;4.00;;;2.05;;
46491;SDS011;32206;51.446;6.792;2023-06-14T05:43:58;5.20;;;2.00;;
46491;SDS011;32206;51.446;6.792;2023-06-14T05:46:25;4.93;;;2.72;;
46491;SDS011;32206;51.446;6.792;2023-06-14T05:48:51;18.27;;;3.33;;
46491;SDS011;32206;51.446;6.792;2023-06-14T05:51:17;13.77;;;2.72;;
46491;SDS011;32206;51.446;6.792;2023-06-14T05:53:48;4.43;;;1.98;;
46491;SDS011;32206;51.446;6.792;2023-06-14T05:56:15;7.28;;;2.60;;
46491;SDS011;32206;51.446;6.792;2023-06-14T05:58:45;5.30;;;2.42;;
46491;SDS011;32206;51.446;6.792;2023-06-14T06:01:11;7.72;;;2.58;;
46491;SDS011;32206;51.446;6.792;2023-06-14T06:03:38;5.78;;;1.90;;
46491;SDS011;32206;51.446;6.792;2023-06-14T06:06:04;2.70;;;2.10;;
46491;SDS011;32206;51.446;6.792;2023-06-14T06:08:29;7.72;;;2.40;;
46491;SDS011;32206;51.446;6.792;2023-06-14T06:10:56;6.28;;;2.58;;
46491;SDS011;32206;51.446;6.792;2023-06-14T06:13:22;7.55;;;2.30;;
46491;SDS011;32206;51.446;6.792;2023-06-14T06:15:48;4.45;;;2.20;;
46491;SDS011;32206;51.446;6.792;2023-06-14T06:18:14;6.47;;;2.20;;
46491;SDS011;32206;51.446;6.792;2023-06-14T06:20:39;12.13;;;2.22;;
46491;SDS011;32206;51.446;6.792;2023-06-14T06:23:05;6.10;;;2.33;;
46491;SDS011;32206;51.446;6.792;2023-06-14T06:32:15;8.60;;;2.20;;
46491;SDS011;32206;51.446;6.792;2023-06-14T06:34:40;15.18;;;3.20;;
46491;SDS011;32206;51.446;6.792;2023-06-14T06:37:06;6.30;;;2.20;;
46491;SDS011;32206;51.446;6.792;2023-06-14T06:39:32;7.20;;;2.78;;
46491;SDS011;32206;51.446;6.792;2023-06-14T06:41:58;6.22;;;2.33;;
46491;SDS011;32206;51.446;6.792;2023-06-14T06:44:24;6.53;;;2.22;;
46491;SDS011;32206;51.446;6.792;2023-06-14T06:46:49;8.27;;;2.47;;
46491;SDS011;32206;51.446;6.792;2023-06-14T06:49:15;4.32;;;1.58;;
46491;SDS011;32206;51.446;6.792;2023-06-14T06:55:02;15.65;;;1.85;;
46491;SDS011;32206;51.446;6.792;2023-06-14T06:57:28;6.95;;;1.30;;
46491;SDS011;32206;51.446;6.792;2023-06-14T06:59:54;5.32;;;1.70;;
46491;SDS011;32206;51.446;6.792;2023-06-14T07:02:20;5.68;;;1.83;;
46491;SDS011;32206;51.446;6.792;2023-06-14T07:04:45;3.55;;;1.63;;
46491;SDS011;32206;51.446;6.792;2023-06-14T07:07:11;3.00;;;1.63;;
46491;SDS011;32206;51.446;6.792;2023-06-14T07:12:59;3.90;;;1.10;;
46491;SDS011;32206;51.446;6.792;2023-06-14T07:15:25;4.40;;;1.20;;
46491;SDS011;32206;51.446;6.792;2023-06-14T07:17:51;8.52;;;1.63;;
46491;SDS011;32206;51.446;6.792;2023-06-14T07:20:18;6.47;;;1.30;;
46491;SDS011;32206;51.446;6.792;2023-06-14T07:22:43;2.92;;;1.20;;
46491;SDS011;32206;51.446;6.792;2023-06-14T07:25:09;1.60;;;1.20;;
46491;SDS011;32206;51.446;6.792;2023-06-14T07:27:39;3.65;;;1.08;;
46491;SDS011;32206;51.446;6.792;2023-06-14T07:30:08;9.02;;;1.63;;
46491;SDS011;32206;51.446;6.792;2023-06-14T07:32:34;5.53;;;1.70;;
46491;SDS011;32206;51.446;6.792;2023-06-14T07:37:51;3.17;;;1.30;;
46491;SDS011;32206;51.446;6.792;2023-06-14T07:40:17;9.52;;;1.20;;
46491;SDS011;32206;51.446;6.792;2023-06-14T07:42:43;3.22;;;1.45;;
46491;SDS011;32206;51.446;6.792;2023-06-14T07:45:09;10.45;;;2.20;;
46491;SDS011;32206;51.446;6.792;2023-06-14T07:54:19;2.13;;;1.20;;
46491;SDS011;32206;51.446;6.792;2023-06-14T07:56:50;3.03;;;1.13;;
46491;SDS011;32206;51.446;6.792;2023-06-14T07:59:15;4.75;;;1.02;;
46491;SDS011;32206;51.446;6.792;2023-06-14T08:01:41;1.65;;;1.40;;
46491;SDS011;32206;51.446;6.792;2023-06-14T08:04:12;5.32;;;1.30;;
46491;SDS011;32206;51.446;6.792;2023-06-14T08:06:38;2.47;;;1.17;;
46491;SDS011;32206;51.446;6.792;2023-06-14T08:09:04;2.00;;;1.20;;
46491;SDS011;32206;51.446;6.792;2023-06-14T08:11:30;5.53;;;0.98;;
46491;SDS011;32206;51.446;6.792;2023-06-14T08:13:56;2.05;;;1.10;;
46491;SDS011;32206;51.446;6.792;2023-06-14T08:16:22;5.70;;;1.48;;
46491;SDS011;32206;51.446;6.792;2023-06-14T08:18:48;3.75;;;1.10;;
46491;SDS011;32206;51.446;6.792;2023-06-14T08:21:14;3.50;;;0.98;;
46491;SDS011;32206;51.446;6.792;2023-06-14T08:23:40;2.22;;;1.75;;
46491;SDS011;32206;51.446;6.792;2023-06-14T08:29:29;1.67;;;1.10;;
46491;SDS011;32206;51.446;6.792;2023-06-14T08:31:55;2.45;;;0.98;;
46491;SDS011;32206;51.446;6.792;2023-06-14T08:34:21;3.25;;;1.15;;
46491;SDS011;32206;51.446;6.792;2023-06-14T08:36:48;5.40;;;1.35;;
46491;SDS011;32206;51.446;6.792;2023-06-14T08:39:17;3.03;;;1.13;;
46491;SDS011;32206;51.446;6.792;2023-06-14T08:41:46;4.22;;;1.02;;
46491;SDS011;32206;51.446;6.792;2023-06-14T08:44:16;3.30;;;1.10;;
46491;SDS011;32206;51.446;6.792;2023-06-14T08:46:41;20.98;;;1.40;;
46491;SDS011;32206;51.446;6.792;2023-06-14T08:49:08;32.55;;;3.67;;
46491;SDS011;32206;51.446;6.792;2023-06-14T08:51:37;52.90;;;6.88;;
46491;SDS011;32206;51.446;6.792;2023-06-14T08:54:03;23.10;;;3.75;;
46491;SDS011;32206;51.446;6.792;2023-06-14T08:56:30;16.90;;;1.95;;
46491;SDS011;32206;51.446;6.792;2023-06-14T08:58:57;15.23;;;2.38;;
46491;SDS011;32206;51.446;6.792;2023-06-14T09:01:28;4.40;;;1.73;;
46491;SDS011;32206;51.446;6.792;2023-06-14T09:03:53;7.32;;;1.20;;
46491;SDS011;32206;51.446;6.792;2023-06-14T09:09:44;18.27;;;2.63;;
46491;SDS011;32206;51.446;6.792;2023-06-14T09:12:10;2.30;;;1.77;;
46491;SDS011;32206;51.446;6.792;2023-06-14T09:14:37;8.52;;;1.92;;
46491;SDS011;32206;51.446;6.792;2023-06-14T09:17:05;5.50;;;1.00;;
46491;SDS011;32206;51.446;6.792;2023-06-14T09:19:31;4.20;;;1.10;;
46491;SDS011;32206;51.446;6.792;2023-06-14T09:21:56;2.33;;;1.13;;
46491;SDS011;32206;51.446;6.792;2023-06-14T09:24:23;4.88;;;1.38;;
46491;SDS011;32206;51.446;6.792;2023-06-14T09:29:44;5.40;;;1.15;;
46491;SDS011;32206;51.446;6.792;2023-06-14T09:32:10;3.33;;;1.10;;
46491;SDS011;32206;51.446;6.792;2023-06-14T09:34:36;4.82;;;1.10;;
46491;SDS011;32206;51.446;6.792;2023-06-14T09:37:02;6.20;;;1.27;;
46491;SDS011;32206;51.446;6.792;2023-06-14T09:39:28;6.10;;;1.77;;
46491;SDS011;32206;51.446;6.792;2023-06-14T09:45:15;2.35;;;0.70;;
46491;SDS011;32206;51.446;6.792;2023-06-14T09:54:31;6.05;;;1.02;;
46491;SDS011;32206;51.446;6.792;2023-06-14T09:57:01;7.18;;;0.80;;
46491;SDS011;32206;51.446;6.792;2023-06-14T09:59:29;4.75;;;1.00;;
46491;SDS011;32206;51.446;6.792;2023-06-14T10:01:58;3.45;;;0.85;;
46491;SDS011;32206;51.446;6.792;2023-06-14T10:04:25;3.70;;;0.77;;
46491;SDS011;32206;51.446;6.792;2023-06-14T10:06:55;5.65;;;1.00;;
46491;SDS011;32206;51.446;6.792;2023-06-14T10:09:21;0.93;;;0.77;;
46491;SDS011;32206;51.446;6.792;2023-06-14T10:11:47;1.45;;;0.60;;
46491;SDS011;32206;51.446;6.792;2023-06-14T10:14:14;4.15;;;1.10;;
46491;SDS011;32206;51.446;6.792;2023-06-14T10:19:37;3.47;;;0.70;;
46491;SDS011;32206;51.446;6.792;2023-06-14T10:22:11;3.92;;;0.80;;
46491;SDS011;32206;51.446;6.792;2023-06-14T10:24:42;2.33;;;0.82;;
46491;SDS011;32206;51.446;6.792;2023-06-14T10:27:09;5.85;;;0.60;;
46491;SDS011;32206;51.446;6.792;2023-06-14T10:32:19;1.73;;;0.98;;
46491;SDS011;32206;51.446;6.792;2023-06-14T10:34:45;11.15;;;0.82;;
46491;SDS011;32206;51.446;6.792;2023-06-14T10:37:20;5.47;;;0.93;;
46491;SDS011;32206;51.446;6.792;2023-06-14T10:39:46;6.15;;;1.00;;
46491;SDS011;32206;51.446;6.792;2023-06-14T10:42:12;6.13;;;1.48;;
46491;SDS011;32206;51.446;6.792;2023-06-14T10:47:08;4.75;;;0.80;;
46491;SDS011;32206;51.446;6.792;2023-06-14T10:52:08;3.88;;;0.60;;
46491;SDS011;32206;51.446;6.792;2023-06-14T10:57:44;6.13;;;1.00;;
46491;SDS011;32206;51.446;6.792;2023-06-14T11:00:20;0.98;;;0.45;;
46491;SDS011;32206;51.446;6.792;2023-06-14T11:05:57;12.25;;;0.95;;
46491;SDS011;32206;51.446;6.792;2023-06-14T11:11:45;3.95;;;0.50;;
46491;SDS011;32206;51.446;6.792;2023-06-14T11:14:12;2.60;;;0.55;;
46491;SDS011;32206;51.446;6.792;2023-06-14T11:16:38;1.85;;;0.45;;
46491;SDS011;32206;51.446;6.792;2023-06-14T11:19:04;1.13;;;0.60;;
46491;SDS011;32206;51.446;6.792;2023-06-14T11:21:33;3.35;;;0.60;;
46491;SDS011;32206;51.446;6.792;2023-06-14T11:23:59;2.75;;;0.65;;
46491;SDS011;32206;51.446;6.792;2023-06-14T11:26:25;2.75;;;0.50;;
46491;SDS011;32206;51.446;6.792;2023-06-14T11:28:56;4.15;;;0.73;;
46491;SDS011;32206;51.446;6.792;2023-06-14T11:31:22;5.47;;;0.60;;
46491;SDS011;32206;51.446;6.792;2023-06-14T11:33:55;3.75;;;0.50;;
46491;SDS011;32206;51.446;6.792;2023-06-14T11:36:22;4.72;;;0.63;;
46491;SDS011;32206;51.446;6.792;2023-06-14T11:38:57;4.18;;;1.35;;
46491;SDS011;32206;51.446;6.792;2023-06-14T11:41:41;3.60;;;0.90;;
46491;SDS011;32206;51.446;6.792;2023-06-14T11:44:08;1.58;;;0.43;;
46491;SDS011;32206;51.446;6.792;2023-06-14T11:46:34;1.75;;;0.60;;
46491;SDS011;32206;51.446;6.792;2023-06-14T11:49:00;8.52;;;2.58;;
46491;SDS011;32206;51.446;6.792;2023-06-14T11:51:32;2.92;;;0.60;;
46491;SDS011;32206;51.446;6.792;2023-06-14T11:53:59;1.92;;;0.60;;
46491;SDS011;32206;51.446;6.792;2023-06-14T11:56:29;3.88;;;1.13;;
46491;SDS011;32206;51.446;6.792;2023-06-14T11:58:57;4.63;;;0.52;;
46491;SDS011;32206;51.446;6.792;2023-06-14T12:01:23;2.58;;;0.60;;
46491;SDS011;32206;51.446;6.792;2023-06-14T12:03:49;1.35;;;0.60;;
46491;SDS011;32206;51.446;6.792;2023-06-14T12:06:15;0.90;;;0.68;;
46491;SDS011;32206;51.446;6.792;2023-06-14T12:12:15;1.63;;;0.73;;
46491;SDS011;32206;51.446;6.792;2023-06-14T12:14:41;2.67;;;0.57;;
46491;SDS011;32206;51.446;6.792;2023-06-14T12:17:07;5.18;;;0.80;;
46491;SDS011;32206;51.446;6.792;2023-06-14T12:19:33;0.90;;;0.77;;
46491;SDS011;32206;51.446;6.792;2023-06-14T12:22:06;1.95;;;0.68;;
46491;SDS011;32206;51.446;6.792;2023-06-14T12:24:34;0.95;;;0.57;;
46491;SDS011;32206;51.446;6.792;2023-06-14T12:27:00;2.75;;;0.88;;
46491;SDS011;32206;51.446;6.792;2023-06-14T12:29:29;3.92;;;0.70;;
46491;SDS011;32206;51.446;6.792;2023-06-14T12:35:17;3.83;;;0.75;;
46491;SDS011;32206;51.446;6.792;2023-06-14T12:37:44;0.80;;;0.68;;
46491;SDS011;32206;51.446;6.792;2023-06-14T12:40:11;2.55;;;0.80;;
46491;SDS011;32206;51.446;6.792;2023-06-14T12:42:37;2.47;;;0.63;;
46491;SDS011;32206;51.446;6.792;2023-06-14T12:45:02;2.22;;;0.80;;
46491;SDS011;32206;51.446;6.792;2023-06-14T12:47:28;8.23;;;0.70;;
46491;SDS011;32206;51.446;6.792;2023-06-14T12:49:54;0.50;;;0.50;;
46491;SDS011;32206;51.446;6.792;2023-06-14T12:52:20;11.57;;;1.02;;
46491;SDS011;32206;51.446;6.792;2023-06-14T12:58:08;1.48;;;0.93;;
46491;SDS011;32206;51.446;6.792;2023-06-14T13:00:33;2.90;;;0.80;;
46491;SDS011;32206;51.446;6.792;2023-06-14T13:03:00;6.95;;;0.90;;
46491;SDS011;32206;51.446;6.792;2023-06-14T13:05:25;2.63;;;0.70;;
46491;SDS011;32206;51.446;6.792;2023-06-14T13:07:51;1.67;;;0.77;;
46491;SDS011;32206;51.446;6.792;2023-06-14T13:10:17;2.45;;;0.80;;
46491;SDS011;32206;51.446;6.792;2023-06-14T13:12:43;2.97;;;0.82;;
46491;SDS011;32206;51.446;6.792;2023-06-14T13:15:09;7.05;;;1.20;;
46491;SDS011;32206;51.446;6.792;2023-06-14T13:17:35;3.67;;;2.00;;
46491;SDS011;32206;51.446;6.792;2023-06-14T13:20:07;0.88;;;0.85;;
46491;SDS011;32206;51.446;6.792;2023-06-14T13:22:36;2.47;;;0.82;;
46491;SDS011;32206;51.446;6.792;2023-06-14T13:25:02;2.65;;;1.10;;
46491;SDS011;32206;51.446;6.792;2023-06-14T13:30:45;4.53;;;0.98;;
46491;SDS011;32206;51.446;6.792;2023-06-14T13:33:11;7.15;;;1.10;;
46491;SDS011;32206;51.446;6.792;2023-06-14T13:35:37;2.35;;;0.80;;
46491;SDS011;32206;51.446;6.792;2023-06-14T13:38:03;5.82;;;1.20;;
46491;SDS011;32206;51.446;6.792;2023-06-14T13:40:29;3.08;;;0.85;;
46491;SDS011;32206;51.446;6.792;2023-06-14T13:42:54;0.70;;;0.70;;
46491;SDS011;32206;51.446;6.792;2023-06-14T13:45:20;1.80;;;0.77;;
46491;SDS011;32206;51.446;6.792;2023-06-14T13:47:47;1.48;;;0.80;;
46491;SDS011;32206;51.446;6.792;2023-06-14T13:50:13;6.95;;;1.27;;
46491;SDS011;32206;51.446;6.792;2023-06-14T13:52:39;1.98;;;0.85;;
46491;SDS011;32206;51.446;6.792;2023-06-14T13:55:05;2.50;;;1.20;;
46491;SDS011;32206;51.446;6.792;2023-06-14T13:57:31;2.20;;;1.10;;
46491;SDS011;32206;51.446;6.792;2023-06-14T13:59:57;2.90;;;1.10;;
46491;SDS011;32206;51.446;6.792;2023-06-14T14:02:26;4.28;;;1.00;;
46491;SDS011;32206;51.446;6.792;2023-06-14T14:04:53;5.53;;;2.00;;
46491;SDS011;32206;51.446;6.792;2023-06-14T14:07:20;3.28;;;1.20;;
46491;SDS011;32206;51.446;6.792;2023-06-14T14:09:46;4.43;;;0.85;;
46491;SDS011;32206;51.446;6.792;2023-06-14T14:12:12;3.53;;;0.98;;
46491;SDS011;32206;51.446;6.792;2023-06-14T14:14:39;4.93;;;1.08;;
46491;SDS011;32206;51.446;6.792;2023-06-14T14:17:05;4.68;;;1.00;;
46491;SDS011;32206;51.446;6.792;2023-06-14T14:19:31;2.17;;;1.00;;
46491;SDS011;32206;51.446;6.792;2023-06-14T14:21:57;6.00;;;2.50;;
46491;SDS011;32206;51.446;6.792;2023-06-14T14:24:23;5.65;;;3.10;;
46491;SDS011;32206;51.446;6.792;2023-06-14T14:26:49;4.50;;;0.88;;
46491;SDS011;32206;51.446;6.792;2023-06-14T14:29:15;4.07;;;1.10;;
46491;SDS011;32206;51.446;6.792;2023-06-14T14:31:42;1.85;;;0.88;;
46491;SDS011;32206;51.446;6.792;2023-06-14T14:34:08;1.45;;;0.85;;
46491;SDS011;32206;51.446;6.792;2023-06-14T14:36:33;1.98;;;1.15;;
46491;SDS011;32206;51.446;6.792;2023-06-14T14:39:02;7.15;;;1.10;;
46491;SDS011;32206;51.446;6.792;2023-06-14T14:41:32;2.08;;;0.85;;
46491;SDS011;32206;51.446;6.792;2023-06-14T14:43:57;3.13;;;1.10;;
46491;SDS011;32206;51.446;6.792;2023-06-14T14:46:25;3.55;;;0.70;;
46491;SDS011;32206;51.446;6.792;2023-06-14T14:48:52;4.15;;;1.15;;
46491;SDS011;32206;51.446;6.792;2023-06-14T14:51:18;5.00;;;1.02;;
46491;SDS011;32206;51.446;6.792;2023-06-14T14:53:43;4.38;;;1.15;;
46491;SDS011;32206;51.446;6.792;2023-06-14T14:56:09;4.35;;;1.00;;
46491;SDS011;32206;51.446;6.792;2023-06-14T15:02:12;2.10;;;1.10;;
46491;SDS011;32206;51.446;6.792;2023-06-14T15:04:38;5.95;;;1.10;;
46491;SDS011;32206;51.446;6.792;2023-06-14T15:07:03;3.33;;;1.27;;
46491;SDS011;32206;51.446;6.792;2023-06-14T15:09:31;5.55;;;0.93;;
46491;SDS011;32206;51.446;6.792;2023-06-14T15:11:56;2.15;;;1.30;;
46491;SDS011;32206;51.446;6.792;2023-06-14T15:14:22;3.53;;;1.00;;
46491;SDS011;32206;51.446;6.792;2023-06-14T15:16:48;1.90;;;0.88;;
46491;SDS011;32206;51.446;6.792;2023-06-14T15:19:13;3.10;;;1.05;;
46491;SDS011;32206;51.446;6.792;2023-06-14T15:21:39;6.10;;;1.20;;
46491;SDS011;32206;51.446;6.792;2023-06-14T15:24:05;3.63;;;1.40;;
46491;SDS011;32206;51.446;6.792;2023-06-14T15:26:31;5.35;;;0.85;;
46491;SDS011;32206;51.446;6.792;2023-06-14T15:28:56;2.70;;;1.17;;
46491;SDS011;32206;51.446;6.792;2023-06-14T15:31:22;3.75;;;2.03;;
46491;SDS011;32206;51.446;6.792;2023-06-14T15:33:50;3.85;;;1.88;;
46491;SDS011;32206;51.446;6.792;2023-06-14T15:36:16;4.78;;;1.05;;
46491;SDS011;32206;51.446;6.792;2023-06-14T15:38:42;7.05;;;1.70;;
46491;SDS011;32206;51.446;6.792;2023-06-14T15:41:08;2.17;;;1.08;;
46491;SDS011;32206;51.446;6.792;2023-06-14T15:43:34;7.00;;;1.20;;
46491;SDS011;32206;51.446;6.792;2023-06-14T15:46:00;4.55;;;1.38;;
46491;SDS011;32206;51.446;6.792;2023-06-14T15:48:25;1.00;;;1.00;;
46491;SDS011;32206;51.446;6.792;2023-06-14T15:50:51;1.45;;;1.20;;
46491;SDS011;32206;51.446;6.792;2023-06-14T15:56:45;4.93;;;1.00;;
46491;SDS011;32206;51.446;6.792;2023-06-14T15:59:11;3.72;;;0.90;;
46491;SDS011;32206;51.446;6.792;2023-06-14T16:01:36;6.03;;;1.65;;
46491;SDS011;32206;51.446;6.792;2023-06-14T16:04:02;4.82;;;3.03;;
46491;SDS011;32206;51.446;6.792;2023-06-14T16:06:28;3.08;;;1.17;;
46491;SDS011;32206;51.446;6.792;2023-06-14T16:08:53;8.00;;;1.30;;
46491;SDS011;32206;51.446;6.792;2023-06-14T16:11:19;4.93;;;1.17;;
46491;SDS011;32206;51.446;6.792;2023-06-14T16:13:45;9.82;;;1.50;;
46491;SDS011;32206;51.446;6.792;2023-06-14T16:16:10;5.47;;;1.35;;
46491;SDS011;32206;51.446;6.792;2023-06-14T16:18:36;1.60;;;1.27;;
46491;SDS011;32206;51.446;6.792;2023-06-14T16:21:02;3.20;;;1.50;;
46491;SDS011;32206;51.446;6.792;2023-06-14T16:23:31;2.70;;;0.98;;
46491;SDS011;32206;51.446;6.792;2023-06-14T16:25:59;2.03;;;1.08;;
46491;SDS011;32206;51.446;6.792;2023-06-14T16:28:25;2.03;;;1.30;;
46491;SDS011;32206;51.446;6.792;2023-06-14T16:30:50;1.83;;;1.10;;
46491;SDS011;32206;51.446;6.792;2023-06-14T16:33:16;2.42;;;1.00;;
46491;SDS011;32206;51.446;6.792;2023-06-14T16:35:42;3.00;;;1.05;;
46491;SDS011;32206;51.446;6.792;2023-06-14T16:38:07;3.15;;;1.15;;
46491;SDS011;32206;51.446;6.792;2023-06-14T16:40:33;2.95;;;1.13;;
46491;SDS011;32206;51.446;6.792;2023-06-14T16:43:00;1.30;;;1.20;;
46491;SDS011;32206;51.446;6.792;2023-06-14T16:45:26;1.55;;;0.93;;
46491;SDS011;32206;51.446;6.792;2023-06-14T16:47:52;9.15;;;1.15;;
46491;SDS011;32206;51.446;6.792;2023-06-14T16:50:17;4.43;;;1.10;;
46491;SDS011;32206;51.446;6.792;2023-06-14T16:52:43;2.65;;;1.00;;
46491;SDS011;32206;51.446;6.792;2023-06-14T16:55:08;3.80;;;1.20;;
46491;SDS011;32206;51.446;6.792;2023-06-14T16:57:34;2.65;;;1.17;;
46491;SDS011;32206;51.446;6.792;2023-06-14T17:00:00;2.83;;;1.30;;
46491;SDS011;32206;51.446;6.792;2023-06-14T17:02:26;1.20;;;1.10;;